sensor_id;sensor_type;location;lat;lon;timestamp;temperature;humidity
20284;DHT22;10301;50.832;4.080;2023-12-20T00:00:36;6.40;99.90
20284;DHT22;10301;50.832;4.080;2023-12-20T00:03:05;6.30;99.90
20284;DHT22;10301;50.832;4.080;2023-12-20T00:05:31;6.40;99.90
20284;DHT22;10301;50.832;4.080;2023-12-20T00:08:00;6.30;99.90
20284;DHT22;10301;50.832;4.080;2023-12-20T00:10:26;6.30;99.90
20284;DHT22;10301;50.832;4.080;2023-12-20T00:12:51;6.40;99.90
20284;DHT22;10301;50.832;4.080;2023-12-20T00:15:17;6.50;99.90
20284;DHT22;10301;50.832;4.080;2023-12-20T00:17:43;6.60;99.90
20284;DHT22;10301;50.832;4.080;2023-12-20T00:20:09;6.60;99.90
20284;DHT22;10301;50.832;4.080;2023-12-20T00:22:34;6.50;99.90
20284;DHT22;10301;50.832;4.080;2023-12-20T00:25:00;6.50;99.90
20284;DHT22;10301;50.832;4.080;2023-12-20T00:27:26;6.50;99.90
20284;DHT22;10301;50.832;4.080;2023-12-20T00:29:51;6.50;99.90
20284;DHT22;10301;50.832;4.080;2023-12-20T00:32:17;6.60;99.90
20284;DHT22;10301;50.832;4.080;2023-12-20T00:34:43;6.80;99.90
20284;DHT22;10301;50.832;4.080;2023-12-20T00:37:09;6.70;99.90
20284;DHT22;10301;50.832;4.080;2023-12-20T00:39:34;6.60;99.90
20284;DHT22;10301;50.832;4.080;2023-12-20T00:42:00;6.60;99.90
20284;DHT22;10301;50.832;4.080;2023-12-20T00:44:25;6.80;99.90
20284;DHT22;10301;50.832;4.080;2023-12-20T00:46:51;6.80;99.90
20284;DHT22;10301;50.832;4.080;2023-12-20T00:49:17;6.60;99.90
20284;DHT22;10301;50.832;4.080;2023-12-20T00:51:43;6.50;99.90
20284;DHT22;10301;50.832;4.080;2023-12-20T00:54:09;6.40;99.90
20284;DHT22;10301;50.832;4.080;2023-12-20T00:56:35;6.40;99.90
20284;DHT22;10301;50.832;4.080;2023-12-20T00:59:00;6.40;99.90
20284;DHT22;10301;50.832;4.080;2023-12-20T01:01:26;6.30;99.90
20284;DHT22;10301;50.832;4.080;2023-12-20T01:03:52;6.20;99.90
20284;DHT22;10301;50.832;4.080;2023-12-20T01:06:18;6.30;99.90
20284;DHT22;10301;50.832;4.080;2023-12-20T01:08:43;6.10;99.90
20284;DHT22;10301;50.832;4.080;2023-12-20T01:11:09;6.10;99.90
20284;DHT22;10301;50.832;4.080;2023-12-20T01:13:35;6.10;99.90
20284;DHT22;10301;50.832;4.080;2023-12-20T01:16:00;6.10;99.90
20284;DHT22;10301;50.832;4.080;2023-12-20T01:18:26;6.20;99.90
20284;DHT22;10301;50.832;4.080;2023-12-20T01:20:52;6.20;99.90
20284;DHT22;10301;50.832;4.080;2023-12-20T01:23:18;6.20;99.90
20284;DHT22;10301;50.832;4.080;2023-12-20T01:25:43;6.10;99.90
20284;DHT22;10301;50.832;4.080;2023-12-20T01:28:09;6.20;99.90
20284;DHT22;10301;50.832;4.080;2023-12-20T01:30:35;6.10;99.90
20284;DHT22;10301;50.832;4.080;2023-12-20T01:33:00;6.10;99.90
20284;DHT22;10301;50.832;4.080;2023-12-20T01:35:26;6.00;99.90
20284;DHT22;10301;50.832;4.080;2023-12-20T01:37:52;6.10;99.90
20284;DHT22;10301;50.832;4.080;2023-12-20T01:40:22;6.10;99.90
20284;DHT22;10301;50.832;4.080;2023-12-20T01:42:47;6.10;99.90
20284;DHT22;10301;50.832;4.080;2023-12-20T01:45:22;6.20;99.90
20284;DHT22;10301;50.832;4.080;2023-12-20T01:47:48;6.00;99.90
20284;DHT22;10301;50.832;4.080;2023-12-20T01:50:14;6.00;99.90
20284;DHT22;10301;50.832;4.080;2023-12-20T01:52:41;6.10;99.90
20284;DHT22;10301;50.832;4.080;2023-12-20T01:55:07;6.20;99.90
20284;DHT22;10301;50.832;4.080;2023-12-20T01:57:41;6.20;99.90
20284;DHT22;10301;50.832;4.080;2023-12-20T02:00:08;6.20;99.90
20284;DHT22;10301;50.832;4.080;2023-12-20T02:02:36;6.30;99.90
20284;DHT22;10301;50.832;4.080;2023-12-20T02:05:02;6.20;99.90
20284;DHT22;10301;50.832;4.080;2023-12-20T02:07:29;6.40;99.90
20284;DHT22;10301;50.832;4.080;2023-12-20T02:09:56;6.30;99.90
20284;DHT22;10301;50.832;4.080;2023-12-20T02:12:22;6.40;99.90
20284;DHT22;10301;50.832;4.080;2023-12-20T02:14:48;6.40;99.90
20284;DHT22;10301;50.832;4.080;2023-12-20T02:17:15;6.50;99.90
20284;DHT22;10301;50.832;4.080;2023-12-20T02:19:41;6.50;99.90
20284;DHT22;10301;50.832;4.080;2023-12-20T02:22:10;6.50;99.90
20284;DHT22;10301;50.832;4.080;2023-12-20T02:24:36;6.50;99.90
20284;DHT22;10301;50.832;4.080;2023-12-20T02:27:02;6.50;99.90
20284;DHT22;10301;50.832;4.080;2023-12-20T02:29:28;6.50;99.90
20284;DHT22;10301;50.832;4.080;2023-12-20T02:31:53;6.40;99.90
20284;DHT22;10301;50.832;4.080;2023-12-20T02:34:19;6.30;99.90
20284;DHT22;10301;50.832;4.080;2023-12-20T02:36:45;6.20;99.90
20284;DHT22;10301;50.832;4.080;2023-12-20T02:39:10;6.20;99.90
20284;DHT22;10301;50.832;4.080;2023-12-20T02:41:36;6.10;99.90
20284;DHT22;10301;50.832;4.080;2023-12-20T02:44:03;6.20;99.90
20284;DHT22;10301;50.832;4.080;2023-12-20T02:46:28;6.30;99.90
20284;DHT22;10301;50.832;4.080;2023-12-20T02:48:54;6.30;99.90
20284;DHT22;10301;50.832;4.080;2023-12-20T02:51:20;6.40;99.90
20284;DHT22;10301;50.832;4.080;2023-12-20T02:53:46;6.50;99.90
20284;DHT22;10301;50.832;4.080;2023-12-20T02:56:11;6.60;99.90
20284;DHT22;10301;50.832;4.080;2023-12-20T02:58:37;6.70;99.90
20284;DHT22;10301;50.832;4.080;2023-12-20T03:01:03;6.90;99.90
20284;DHT22;10301;50.832;4.080;2023-12-20T03:03:29;6.80;99.90
20284;DHT22;10301;50.832;4.080;2023-12-20T03:05:54;6.80;99.90
20284;DHT22;10301;50.832;4.080;2023-12-20T03:08:20;6.80;99.90
20284;DHT22;10301;50.832;4.080;2023-12-20T03:10:45;7.00;99.90
20284;DHT22;10301;50.832;4.080;2023-12-20T03:13:11;7.10;99.90
20284;DHT22;10301;50.832;4.080;2023-12-20T03:15:37;7.20;99.90
20284;DHT22;10301;50.832;4.080;2023-12-20T03:18:03;7.20;99.90
20284;DHT22;10301;50.832;4.080;2023-12-20T03:20:28;7.20;99.90
20284;DHT22;10301;50.832;4.080;2023-12-20T03:22:56;7.10;99.90
20284;DHT22;10301;50.832;4.080;2023-12-20T03:25:22;7.00;99.90
20284;DHT22;10301;50.832;4.080;2023-12-20T03:27:47;7.20;99.90
20284;DHT22;10301;50.832;4.080;2023-12-20T03:30:13;7.20;99.90
20284;DHT22;10301;50.832;4.080;2023-12-20T03:32:39;7.20;99.90
20284;DHT22;10301;50.832;4.080;2023-12-20T03:35:05;7.10;99.90
20284;DHT22;10301;50.832;4.080;2023-12-20T03:37:31;7.10;99.90
20284;DHT22;10301;50.832;4.080;2023-12-20T03:39:56;7.00;99.90
20284;DHT22;10301;50.832;4.080;2023-12-20T03:42:22;7.10;99.90
20284;DHT22;10301;50.832;4.080;2023-12-20T03:44:47;7.00;99.90
20284;DHT22;10301;50.832;4.080;2023-12-20T03:47:13;7.10;99.90
20284;DHT22;10301;50.832;4.080;2023-12-20T03:49:39;7.10;99.90
20284;DHT22;10301;50.832;4.080;2023-12-20T03:52:05;7.20;99.90
20284;DHT22;10301;50.832;4.080;2023-12-20T03:54:30;7.10;99.90
20284;DHT22;10301;50.832;4.080;2023-12-20T03:56:56;7.20;99.90
20284;DHT22;10301;50.832;4.080;2023-12-20T03:59:22;7.30;99.90
20284;DHT22;10301;50.832;4.080;2023-12-20T04:01:47;7.20;99.90
20284;DHT22;10301;50.832;4.080;2023-12-20T04:04:13;7.30;99.90
20284;DHT22;10301;50.832;4.080;2023-12-20T04:06:39;7.30;99.90
20284;DHT22;10301;50.832;4.080;2023-12-20T04:09:05;7.10;99.90
20284;DHT22;10301;50.832;4.080;2023-12-20T04:11:31;6.90;99.90
20284;DHT22;10301;50.832;4.080;2023-12-20T04:13:56;6.80;99.90
20284;DHT22;10301;50.832;4.080;2023-12-20T04:16:22;7.00;99.90
20284;DHT22;10301;50.832;4.080;2023-12-20T04:18:47;7.00;99.90
20284;DHT22;10301;50.832;4.080;2023-12-20T04:21:13;6.90;99.90
20284;DHT22;10301;50.832;4.080;2023-12-20T04:23:39;6.90;99.90
20284;DHT22;10301;50.832;4.080;2023-12-20T04:26:04;7.00;99.90
20284;DHT22;10301;50.832;4.080;2023-12-20T04:28:30;6.90;99.90
20284;DHT22;10301;50.832;4.080;2023-12-20T04:30:56;7.10;99.90
20284;DHT22;10301;50.832;4.080;2023-12-20T04:33:22;7.00;99.90
20284;DHT22;10301;50.832;4.080;2023-12-20T04:35:48;6.90;99.90
20284;DHT22;10301;50.832;4.080;2023-12-20T04:38:14;6.90;99.90
20284;DHT22;10301;50.832;4.080;2023-12-20T04:40:39;6.90;99.90
20284;DHT22;10301;50.832;4.080;2023-12-20T04:43:07;6.90;99.90
20284;DHT22;10301;50.832;4.080;2023-12-20T04:45:33;6.70;99.90
20284;DHT22;10301;50.832;4.080;2023-12-20T04:47:58;6.90;99.90
20284;DHT22;10301;50.832;4.080;2023-12-20T04:50:24;6.90;99.90
20284;DHT22;10301;50.832;4.080;2023-12-20T04:52:50;6.90;99.90
20284;DHT22;10301;50.832;4.080;2023-12-20T04:55:16;6.70;99.90
20284;DHT22;10301;50.832;4.080;2023-12-20T04:57:41;6.60;99.90
20284;DHT22;10301;50.832;4.080;2023-12-20T05:00:08;6.50;99.90
20284;DHT22;10301;50.832;4.080;2023-12-20T05:02:35;6.30;99.90
20284;DHT22;10301;50.832;4.080;2023-12-20T05:05:01;6.50;99.90
20284;DHT22;10301;50.832;4.080;2023-12-20T05:07:26;6.40;99.90
20284;DHT22;10301;50.832;4.080;2023-12-20T05:09:52;6.30;99.90
20284;DHT22;10301;50.832;4.080;2023-12-20T05:12:18;6.40;99.90
20284;DHT22;10301;50.832;4.080;2023-12-20T05:14:44;6.40;99.90
20284;DHT22;10301;50.832;4.080;2023-12-20T05:17:10;6.30;99.90
20284;DHT22;10301;50.832;4.080;2023-12-20T05:19:35;6.20;99.90
20284;DHT22;10301;50.832;4.080;2023-12-20T05:22:01;6.20;99.90
20284;DHT22;10301;50.832;4.080;2023-12-20T05:24:28;6.30;99.90
20284;DHT22;10301;50.832;4.080;2023-12-20T05:26:53;6.30;99.90
20284;DHT22;10301;50.832;4.080;2023-12-20T05:29:19;6.10;99.90
20284;DHT22;10301;50.832;4.080;2023-12-20T05:31:45;6.20;99.90
20284;DHT22;10301;50.832;4.080;2023-12-20T05:34:10;6.10;99.90
20284;DHT22;10301;50.832;4.080;2023-12-20T05:36:36;6.00;99.90
20284;DHT22;10301;50.832;4.080;2023-12-20T05:39:02;6.10;99.90
20284;DHT22;10301;50.832;4.080;2023-12-20T05:41:31;6.10;99.90
20284;DHT22;10301;50.832;4.080;2023-12-20T05:43:57;6.10;99.90
20284;DHT22;10301;50.832;4.080;2023-12-20T05:46:24;6.10;99.90
20284;DHT22;10301;50.832;4.080;2023-12-20T05:48:50;6.00;99.90
20284;DHT22;10301;50.832;4.080;2023-12-20T05:51:17;5.90;99.90
20284;DHT22;10301;50.832;4.080;2023-12-20T05:53:42;5.90;99.90
20284;DHT22;10301;50.832;4.080;2023-12-20T05:56:09;5.80;99.90
20284;DHT22;10301;50.832;4.080;2023-12-20T05:58:35;6.00;99.90
20284;DHT22;10301;50.832;4.080;2023-12-20T06:01:00;5.90;99.90
20284;DHT22;10301;50.832;4.080;2023-12-20T06:03:26;6.00;99.90
20284;DHT22;10301;50.832;4.080;2023-12-20T06:05:52;6.20;99.90
20284;DHT22;10301;50.832;4.080;2023-12-20T06:08:17;6.30;99.90
20284;DHT22;10301;50.832;4.080;2023-12-20T06:10:43;6.20;99.90
20284;DHT22;10301;50.832;4.080;2023-12-20T06:13:09;6.10;99.90
20284;DHT22;10301;50.832;4.080;2023-12-20T06:15:34;6.10;99.90
20284;DHT22;10301;50.832;4.080;2023-12-20T06:18:00;6.20;99.90
20284;DHT22;10301;50.832;4.080;2023-12-20T06:20:26;6.20;99.90
20284;DHT22;10301;50.832;4.080;2023-12-20T06:22:52;6.20;99.90
20284;DHT22;10301;50.832;4.080;2023-12-20T06:25:17;6.30;99.90
20284;DHT22;10301;50.832;4.080;2023-12-20T06:27:43;6.30;99.90
20284;DHT22;10301;50.832;4.080;2023-12-20T06:30:09;6.20;99.90
20284;DHT22;10301;50.832;4.080;2023-12-20T06:32:35;6.10;99.90
20284;DHT22;10301;50.832;4.080;2023-12-20T06:35:01;6.20;99.90
20284;DHT22;10301;50.832;4.080;2023-12-20T06:37:26;6.30;99.90
20284;DHT22;10301;50.832;4.080;2023-12-20T06:39:52;6.20;99.90
20284;DHT22;10301;50.832;4.080;2023-12-20T06:42:18;6.30;99.90
20284;DHT22;10301;50.832;4.080;2023-12-20T06:44:43;6.20;99.90
20284;DHT22;10301;50.832;4.080;2023-12-20T06:47:09;6.10;99.90
20284;DHT22;10301;50.832;4.080;2023-12-20T06:49:34;5.90;99.90
20284;DHT22;10301;50.832;4.080;2023-12-20T06:52:00;5.90;99.90
20284;DHT22;10301;50.832;4.080;2023-12-20T06:54:26;6.00;99.90
20284;DHT22;10301;50.832;4.080;2023-12-20T06:56:51;6.10;99.90
20284;DHT22;10301;50.832;4.080;2023-12-20T06:59:17;6.00;99.90
20284;DHT22;10301;50.832;4.080;2023-12-20T07:01:45;5.90;99.90
20284;DHT22;10301;50.832;4.080;2023-12-20T07:04:12;5.70;99.90
20284;DHT22;10301;50.832;4.080;2023-12-20T07:06:38;5.70;99.90
20284;DHT22;10301;50.832;4.080;2023-12-20T07:09:04;5.70;99.90
20284;DHT22;10301;50.832;4.080;2023-12-20T07:11:29;5.80;99.90
20284;DHT22;10301;50.832;4.080;2023-12-20T07:13:55;5.80;99.90
20284;DHT22;10301;50.832;4.080;2023-12-20T07:16:21;5.70;99.90
20284;DHT22;10301;50.832;4.080;2023-12-20T07:18:48;5.70;99.90
20284;DHT22;10301;50.832;4.080;2023-12-20T07:21:13;5.90;99.90
20284;DHT22;10301;50.832;4.080;2023-12-20T07:23:39;5.80;99.90
20284;DHT22;10301;50.832;4.080;2023-12-20T07:26:04;5.80;99.90
20284;DHT22;10301;50.832;4.080;2023-12-20T07:28:30;5.60;99.90
20284;DHT22;10301;50.832;4.080;2023-12-20T07:30:56;5.60;99.90
20284;DHT22;10301;50.832;4.080;2023-12-20T07:33:21;5.50;99.90
20284;DHT22;10301;50.832;4.080;2023-12-20T07:35:47;5.60;99.90
20284;DHT22;10301;50.832;4.080;2023-12-20T07:38:13;5.70;99.90
20284;DHT22;10301;50.832;4.080;2023-12-20T07:40:38;5.70;99.90
20284;DHT22;10301;50.832;4.080;2023-12-20T07:43:04;5.60;99.90
20284;DHT22;10301;50.832;4.080;2023-12-20T07:45:30;5.60;99.90
20284;DHT22;10301;50.832;4.080;2023-12-20T07:47:55;5.80;99.90
20284;DHT22;10301;50.832;4.080;2023-12-20T07:50:21;5.70;99.90
20284;DHT22;10301;50.832;4.080;2023-12-20T07:52:47;5.70;99.90
20284;DHT22;10301;50.832;4.080;2023-12-20T07:55:12;5.70;99.90
20284;DHT22;10301;50.832;4.080;2023-12-20T07:57:38;5.60;99.90
20284;DHT22;10301;50.832;4.080;2023-12-20T08:00:04;5.70;99.90
20284;DHT22;10301;50.832;4.080;2023-12-20T08:02:30;5.70;99.90
20284;DHT22;10301;50.832;4.080;2023-12-20T08:04:56;5.80;99.90
20284;DHT22;10301;50.832;4.080;2023-12-20T08:07:22;5.70;99.90
20284;DHT22;10301;50.832;4.080;2023-12-20T08:09:47;5.70;99.90
20284;DHT22;10301;50.832;4.080;2023-12-20T08:12:13;5.70;99.90
20284;DHT22;10301;50.832;4.080;2023-12-20T08:14:38;5.60;99.90
20284;DHT22;10301;50.832;4.080;2023-12-20T08:17:04;5.70;99.90
20284;DHT22;10301;50.832;4.080;2023-12-20T08:19:30;5.70;99.90
20284;DHT22;10301;50.832;4.080;2023-12-20T08:21:55;5.60;99.90
20284;DHT22;10301;50.832;4.080;2023-12-20T08:24:21;5.70;99.90
20284;DHT22;10301;50.832;4.080;2023-12-20T08:26:46;5.80;99.90
20284;DHT22;10301;50.832;4.080;2023-12-20T08:29:15;5.80;99.90
20284;DHT22;10301;50.832;4.080;2023-12-20T08:31:41;5.90;99.90
20284;DHT22;10301;50.832;4.080;2023-12-20T08:34:06;5.80;99.90
20284;DHT22;10301;50.832;4.080;2023-12-20T08:36:32;5.80;99.90
20284;DHT22;10301;50.832;4.080;2023-12-20T08:38:58;6.00;99.90
20284;DHT22;10301;50.832;4.080;2023-12-20T08:41:26;6.10;99.90
20284;DHT22;10301;50.832;4.080;2023-12-20T08:43:51;6.10;99.90
20284;DHT22;10301;50.832;4.080;2023-12-20T08:46:17;6.20;99.90
20284;DHT22;10301;50.832;4.080;2023-12-20T08:48:43;6.10;99.90
20284;DHT22;10301;50.832;4.080;2023-12-20T08:51:09;6.10;99.90
20284;DHT22;10301;50.832;4.080;2023-12-20T08:53:35;6.10;99.90
20284;DHT22;10301;50.832;4.080;2023-12-20T08:56:01;6.10;99.90
20284;DHT22;10301;50.832;4.080;2023-12-20T08:58:28;6.30;99.90
20284;DHT22;10301;50.832;4.080;2023-12-20T09:00:53;6.20;99.90
20284;DHT22;10301;50.832;4.080;2023-12-20T09:03:19;6.40;99.90
20284;DHT22;10301;50.832;4.080;2023-12-20T09:05:44;6.40;99.90
20284;DHT22;10301;50.832;4.080;2023-12-20T09:08:10;6.20;99.90
20284;DHT22;10301;50.832;4.080;2023-12-20T09:10:37;6.20;99.90
20284;DHT22;10301;50.832;4.080;2023-12-20T09:13:02;6.30;99.90
20284;DHT22;10301;50.832;4.080;2023-12-20T09:15:29;6.40;99.90
20284;DHT22;10301;50.832;4.080;2023-12-20T09:17:55;6.30;99.90
20284;DHT22;10301;50.832;4.080;2023-12-20T09:20:21;6.40;99.90
20284;DHT22;10301;50.832;4.080;2023-12-20T09:22:49;6.40;99.90
20284;DHT22;10301;50.832;4.080;2023-12-20T09:25:14;6.60;99.90
20284;DHT22;10301;50.832;4.080;2023-12-20T09:27:41;6.60;99.90
20284;DHT22;10301;50.832;4.080;2023-12-20T09:30:07;6.60;99.90
20284;DHT22;10301;50.832;4.080;2023-12-20T09:32:33;6.70;99.90
20284;DHT22;10301;50.832;4.080;2023-12-20T09:34:59;7.00;99.90
20284;DHT22;10301;50.832;4.080;2023-12-20T09:37:28;7.10;99.90
20284;DHT22;10301;50.832;4.080;2023-12-20T09:39:54;7.20;99.90
20284;DHT22;10301;50.832;4.080;2023-12-20T09:45:20;7.50;99.90
20284;DHT22;10301;50.832;4.080;2023-12-20T09:47:47;7.30;99.90
20284;DHT22;10301;50.832;4.080;2023-12-20T09:50:14;7.40;99.90
20284;DHT22;10301;50.832;4.080;2023-12-20T09:52:40;7.40;99.90
20284;DHT22;10301;50.832;4.080;2023-12-20T09:55:07;7.40;99.90
20284;DHT22;10301;50.832;4.080;2023-12-20T09:57:34;7.60;99.90
20284;DHT22;10301;50.832;4.080;2023-12-20T09:59:59;7.60;99.90
20284;DHT22;10301;50.832;4.080;2023-12-20T10:02:25;7.60;99.90
20284;DHT22;10301;50.832;4.080;2023-12-20T10:04:54;7.40;99.90
20284;DHT22;10301;50.832;4.080;2023-12-20T10:07:19;7.40;99.90
20284;DHT22;10301;50.832;4.080;2023-12-20T10:09:47;7.40;99.90
20284;DHT22;10301;50.832;4.080;2023-12-20T10:12:12;7.60;99.90
20284;DHT22;10301;50.832;4.080;2023-12-20T10:14:41;7.80;99.90
20284;DHT22;10301;50.832;4.080;2023-12-20T10:17:07;8.00;99.90
20284;DHT22;10301;50.832;4.080;2023-12-20T10:19:33;8.10;99.90
20284;DHT22;10301;50.832;4.080;2023-12-20T10:22:04;8.20;99.90
20284;DHT22;10301;50.832;4.080;2023-12-20T10:24:30;8.40;99.90
20284;DHT22;10301;50.832;4.080;2023-12-20T10:27:03;8.50;99.90
20284;DHT22;10301;50.832;4.080;2023-12-20T10:29:38;8.30;99.90
20284;DHT22;10301;50.832;4.080;2023-12-20T10:32:36;8.40;99.90
20284;DHT22;10301;50.832;4.080;2023-12-20T10:35:02;8.50;99.90
20284;DHT22;10301;50.832;4.080;2023-12-20T10:37:28;8.50;99.90
20284;DHT22;10301;50.832;4.080;2023-12-20T10:39:54;8.50;99.90
20284;DHT22;10301;50.832;4.080;2023-12-20T10:42:26;8.60;99.90
20284;DHT22;10301;50.832;4.080;2023-12-20T10:44:52;8.50;99.90
20284;DHT22;10301;50.832;4.080;2023-12-20T10:47:19;8.60;99.90
20284;DHT22;10301;50.832;4.080;2023-12-20T10:49:46;8.70;99.90
20284;DHT22;10301;50.832;4.080;2023-12-20T10:52:12;8.70;99.90
20284;DHT22;10301;50.832;4.080;2023-12-20T10:54:39;8.40;99.90
20284;DHT22;10301;50.832;4.080;2023-12-20T10:57:05;8.20;99.90
20284;DHT22;10301;50.832;4.080;2023-12-20T10:59:33;8.30;99.90
20284;DHT22;10301;50.832;4.080;2023-12-20T11:02:02;8.30;99.90
20284;DHT22;10301;50.832;4.080;2023-12-20T11:04:56;8.20;99.90
20284;DHT22;10301;50.832;4.080;2023-12-20T11:07:29;8.10;99.90
20284;DHT22;10301;50.832;4.080;2023-12-20T11:10:23;8.10;99.90
20284;DHT22;10301;50.832;4.080;2023-12-20T11:12:57;8.20;99.90
20284;DHT22;10301;50.832;4.080;2023-12-20T11:15:24;8.30;99.90
20284;DHT22;10301;50.832;4.080;2023-12-20T11:17:57;8.30;99.90
20284;DHT22;10301;50.832;4.080;2023-12-20T11:20:24;8.50;99.90
20284;DHT22;10301;50.832;4.080;2023-12-20T11:23:00;8.40;99.90
20284;DHT22;10301;50.832;4.080;2023-12-20T11:25:26;8.50;99.90
20284;DHT22;10301;50.832;4.080;2023-12-20T11:28:11;8.60;99.90
20284;DHT22;10301;50.832;4.080;2023-12-20T11:30:42;8.70;99.90
20284;DHT22;10301;50.832;4.080;2023-12-20T11:33:08;8.80;99.90
20284;DHT22;10301;50.832;4.080;2023-12-20T11:35:34;8.90;99.90
20284;DHT22;10301;50.832;4.080;2023-12-20T11:38:02;9.00;99.90
20284;DHT22;10301;50.832;4.080;2023-12-20T11:40:27;9.00;99.90
20284;DHT22;10301;50.832;4.080;2023-12-20T11:42:53;9.00;99.90
20284;DHT22;10301;50.832;4.080;2023-12-20T11:45:21;9.10;99.90
20284;DHT22;10301;50.832;4.080;2023-12-20T11:47:50;9.10;99.90
20284;DHT22;10301;50.832;4.080;2023-12-20T11:50:20;9.10;99.90
20284;DHT22;10301;50.832;4.080;2023-12-20T11:52:46;9.30;99.90
20284;DHT22;10301;50.832;4.080;2023-12-20T11:55:12;9.40;99.90
20284;DHT22;10301;50.832;4.080;2023-12-20T11:57:38;9.40;99.90
20284;DHT22;10301;50.832;4.080;2023-12-20T12:00:04;9.20;99.90
20284;DHT22;10301;50.832;4.080;2023-12-20T12:02:30;9.10;99.90
20284;DHT22;10301;50.832;4.080;2023-12-20T12:04:56;9.10;99.90
20284;DHT22;10301;50.832;4.080;2023-12-20T12:07:24;9.20;99.90
20284;DHT22;10301;50.832;4.080;2023-12-20T12:09:49;9.20;99.90
20284;DHT22;10301;50.832;4.080;2023-12-20T12:12:16;9.30;99.90
20284;DHT22;10301;50.832;4.080;2023-12-20T12:14:41;9.20;99.90
20284;DHT22;10301;50.832;4.080;2023-12-20T12:17:14;9.20;99.90
20284;DHT22;10301;50.832;4.080;2023-12-20T12:19:40;9.30;99.90
20284;DHT22;10301;50.832;4.080;2023-12-20T12:22:15;9.40;99.90
20284;DHT22;10301;50.832;4.080;2023-12-20T12:24:43;9.40;99.90
20284;DHT22;10301;50.832;4.080;2023-12-20T12:27:09;9.40;99.90
20284;DHT22;10301;50.832;4.080;2023-12-20T12:29:36;9.40;99.90
20284;DHT22;10301;50.832;4.080;2023-12-20T12:32:05;9.40;99.90
20284;DHT22;10301;50.832;4.080;2023-12-20T12:34:33;9.40;99.90
20284;DHT22;10301;50.832;4.080;2023-12-20T12:36:59;9.30;99.90
20284;DHT22;10301;50.832;4.080;2023-12-20T12:39:25;9.30;99.90
20284;DHT22;10301;50.832;4.080;2023-12-20T12:41:51;9.40;99.90
20284;DHT22;10301;50.832;4.080;2023-12-20T12:44:17;9.50;99.90
20284;DHT22;10301;50.832;4.080;2023-12-20T12:46:44;9.50;99.90
20284;DHT22;10301;50.832;4.080;2023-12-20T12:49:10;9.60;99.90
20284;DHT22;10301;50.832;4.080;2023-12-20T12:51:36;9.60;99.90
20284;DHT22;10301;50.832;4.080;2023-12-20T12:54:02;9.80;99.90
20284;DHT22;10301;50.832;4.080;2023-12-20T12:56:27;9.80;99.90
20284;DHT22;10301;50.832;4.080;2023-12-20T12:58:53;9.80;99.90
20284;DHT22;10301;50.832;4.080;2023-12-20T13:01:19;9.70;99.90
20284;DHT22;10301;50.832;4.080;2023-12-20T13:03:44;9.90;99.90
20284;DHT22;10301;50.832;4.080;2023-12-20T13:06:10;9.90;99.90
20284;DHT22;10301;50.832;4.080;2023-12-20T13:08:36;10.00;99.90
20284;DHT22;10301;50.832;4.080;2023-12-20T13:11:01;10.00;99.90
20284;DHT22;10301;50.832;4.080;2023-12-20T13:13:30;10.00;99.90
20284;DHT22;10301;50.832;4.080;2023-12-20T13:15:55;9.90;99.90
20284;DHT22;10301;50.832;4.080;2023-12-20T13:18:22;9.80;99.90
20284;DHT22;10301;50.832;4.080;2023-12-20T13:20:49;9.80;99.90
20284;DHT22;10301;50.832;4.080;2023-12-20T13:23:15;9.80;99.90
20284;DHT22;10301;50.832;4.080;2023-12-20T13:25:41;10.00;99.90
20284;DHT22;10301;50.832;4.080;2023-12-20T13:28:07;9.90;99.90
20284;DHT22;10301;50.832;4.080;2023-12-20T13:30:34;10.00;99.90
20284;DHT22;10301;50.832;4.080;2023-12-20T13:32:59;10.00;99.90
20284;DHT22;10301;50.832;4.080;2023-12-20T13:35:25;10.20;99.90
20284;DHT22;10301;50.832;4.080;2023-12-20T13:37:51;10.10;99.90
20284;DHT22;10301;50.832;4.080;2023-12-20T13:40:17;10.20;99.90
20284;DHT22;10301;50.832;4.080;2023-12-20T13:42:43;10.30;99.90
20284;DHT22;10301;50.832;4.080;2023-12-20T13:45:09;10.50;99.90
20284;DHT22;10301;50.832;4.080;2023-12-20T13:47:35;10.40;99.60
20284;DHT22;10301;50.832;4.080;2023-12-20T13:50:01;10.50;99.40
20284;DHT22;10301;50.832;4.080;2023-12-20T13:52:27;10.40;98.10
20284;DHT22;10301;50.832;4.080;2023-12-20T13:54:53;10.30;99.90
20284;DHT22;10301;50.832;4.080;2023-12-20T13:57:18;10.30;99.90
20284;DHT22;10301;50.832;4.080;2023-12-20T13:59:44;10.30;99.90
20284;DHT22;10301;50.832;4.080;2023-12-20T14:02:10;10.20;99.90
20284;DHT22;10301;50.832;4.080;2023-12-20T14:04:36;10.10;99.90
20284;DHT22;10301;50.832;4.080;2023-12-20T14:07:01;10.10;99.90
20284;DHT22;10301;50.832;4.080;2023-12-20T14:09:28;10.20;99.90
20284;DHT22;10301;50.832;4.080;2023-12-20T14:11:53;10.20;99.90
20284;DHT22;10301;50.832;4.080;2023-12-20T14:14:20;10.10;99.90
20284;DHT22;10301;50.832;4.080;2023-12-20T14:16:45;10.10;99.90
20284;DHT22;10301;50.832;4.080;2023-12-20T14:19:12;10.00;99.90
20284;DHT22;10301;50.832;4.080;2023-12-20T14:21:37;10.00;99.90
20284;DHT22;10301;50.832;4.080;2023-12-20T14:24:03;10.10;99.90
20284;DHT22;10301;50.832;4.080;2023-12-20T14:26:30;10.10;99.90
20284;DHT22;10301;50.832;4.080;2023-12-20T14:28:55;10.00;99.90
20284;DHT22;10301;50.832;4.080;2023-12-20T14:31:21;10.10;99.90
20284;DHT22;10301;50.832;4.080;2023-12-20T14:33:49;10.00;99.90
20284;DHT22;10301;50.832;4.080;2023-12-20T14:36:16;9.90;99.90
20284;DHT22;10301;50.832;4.080;2023-12-20T14:38:44;10.00;99.90
20284;DHT22;10301;50.832;4.080;2023-12-20T14:41:09;10.10;99.90
20284;DHT22;10301;50.832;4.080;2023-12-20T14:43:35;10.10;99.90
20284;DHT22;10301;50.832;4.080;2023-12-20T14:46:01;10.20;99.90
20284;DHT22;10301;50.832;4.080;2023-12-20T14:48:26;10.20;99.90
20284;DHT22;10301;50.832;4.080;2023-12-20T14:50:53;10.10;99.90
20284;DHT22;10301;50.832;4.080;2023-12-20T14:53:19;10.20;99.90
20284;DHT22;10301;50.832;4.080;2023-12-20T14:55:45;10.30;99.90
20284;DHT22;10301;50.832;4.080;2023-12-20T14:58:11;10.40;99.90
20284;DHT22;10301;50.832;4.080;2023-12-20T15:00:37;10.30;99.90
20284;DHT22;10301;50.832;4.080;2023-12-20T15:03:03;10.30;99.90
20284;DHT22;10301;50.832;4.080;2023-12-20T15:05:30;10.30;99.90
20284;DHT22;10301;50.832;4.080;2023-12-20T15:07:56;10.20;99.90
20284;DHT22;10301;50.832;4.080;2023-12-20T15:10:22;10.20;99.90
20284;DHT22;10301;50.832;4.080;2023-12-20T15:12:48;10.10;99.90
20284;DHT22;10301;50.832;4.080;2023-12-20T15:15:14;10.10;99.90
20284;DHT22;10301;50.832;4.080;2023-12-20T15:17:39;10.20;99.90
20284;DHT22;10301;50.832;4.080;2023-12-20T15:20:05;10.20;99.90
20284;DHT22;10301;50.832;4.080;2023-12-20T15:22:31;10.10;99.90
20284;DHT22;10301;50.832;4.080;2023-12-20T15:24:59;10.10;99.90
20284;DHT22;10301;50.832;4.080;2023-12-20T15:27:25;10.10;99.90
20284;DHT22;10301;50.832;4.080;2023-12-20T15:29:50;10.20;99.90
20284;DHT22;10301;50.832;4.080;2023-12-20T15:32:17;10.20;99.90
20284;DHT22;10301;50.832;4.080;2023-12-20T15:34:44;10.20;99.90
20284;DHT22;10301;50.832;4.080;2023-12-20T15:37:11;10.20;99.90
20284;DHT22;10301;50.832;4.080;2023-12-20T15:39:36;10.30;99.90
20284;DHT22;10301;50.832;4.080;2023-12-20T15:42:02;10.30;99.90